sensor_id;sensor_type;location;lat;lon;timestamp;P1;durP1;ratioP1;P2;durP2;ratioP2
71963;SDS011;59834;52.124;5.422;2023-03-14T00:00:18;7.57;;;1.60;;
71963;SDS011;59834;52.124;5.422;2023-03-14T00:02:44;11.63;;;1.90;;
71963;SDS011;59834;52.124;5.422;2023-03-14T00:05:11;18.73;;;2.22;;
71963;SDS011;59834;52.124;5.422;2023-03-14T00:07:38;15.57;;;3.38;;
71963;SDS011;59834;52.124;5.422;2023-03-14T00:10:07;23.43;;;2.37;;
71963;SDS011;59834;52.124;5.422;2023-03-14T00:12:35;8.90;;;1.52;;
71963;SDS011;59834;52.124;5.422;2023-03-14T00:15:02;15.50;;;1.98;;
71963;SDS011;59834;52.124;5.422;2023-03-14T00:17:30;17.25;;;1.80;;
71963;SDS011;59834;52.124;5.422;2023-03-14T00:19:57;19.45;;;3.65;;
71963;SDS011;59834;52.124;5.422;2023-03-14T00:22:30;12.23;;;1.60;;
71963;SDS011;59834;52.124;5.422;2023-03-14T00:24:57;7.93;;;1.33;;
71963;SDS011;59834;52.124;5.422;2023-03-14T00:27:24;14.43;;;2.35;;
71963;SDS011;59834;52.124;5.422;2023-03-14T00:29:50;11.30;;;2.15;;
71963;SDS011;59834;52.124;5.422;2023-03-14T00:32:17;13.45;;;1.92;;
71963;SDS011;59834;52.124;5.422;2023-03-14T00:34:43;10.90;;;1.23;;
71963;SDS011;59834;52.124;5.422;2023-03-14T00:37:10;7.35;;;0.85;;
71963;SDS011;59834;52.124;5.422;2023-03-14T00:39:36;6.80;;;0.63;;
71963;SDS011;59834;52.124;5.422;2023-03-14T00:42:03;9.68;;;0.90;;
71963;SDS011;59834;52.124;5.422;2023-03-14T00:44:29;13.13;;;2.20;;
71963;SDS011;59834;52.124;5.422;2023-03-14T00:46:56;8.80;;;0.90;;
71963;SDS011;59834;52.124;5.422;2023-03-14T00:49:23;7.40;;;0.98;;
71963;SDS011;59834;52.124;5.422;2023-03-14T00:51:50;5.00;;;0.95;;
71963;SDS011;59834;52.124;5.422;2023-03-14T00:54:18;12.90;;;0.82;;
71963;SDS011;59834;52.124;5.422;2023-03-14T00:56:45;12.20;;;0.88;;
71963;SDS011;59834;52.124;5.422;2023-03-14T00:59:11;6.97;;;0.67;;
71963;SDS011;59834;52.124;5.422;2023-03-14T01:01:38;7.43;;;0.80;;
71963;SDS011;59834;52.124;5.422;2023-03-14T01:04:05;10.75;;;0.77;;
71963;SDS011;59834;52.124;5.422;2023-03-14T01:06:32;6.88;;;0.55;;
71963;SDS011;59834;52.124;5.422;2023-03-14T01:08:58;6.80;;;0.47;;
71963;SDS011;59834;52.124;5.422;2023-03-14T01:11:30;8.20;;;0.30;;
71963;SDS011;59834;52.124;5.422;2023-03-14T01:13:58;6.88;;;0.55;;
71963;SDS011;59834;52.124;5.422;2023-03-14T01:16:26;6.43;;;0.80;;
71963;SDS011;59834;52.124;5.422;2023-03-14T01:18:54;7.85;;;0.40;;
71963;SDS011;59834;52.124;5.422;2023-03-14T01:21:22;3.60;;;0.30;;
71963;SDS011;59834;52.124;5.422;2023-03-14T01:23:52;14.07;;;0.73;;
71963;SDS011;59834;52.124;5.422;2023-03-14T01:26:21;13.20;;;0.77;;
71963;SDS011;59834;52.124;5.422;2023-03-14T01:28:51;4.40;;;0.65;;
71963;SDS011;59834;52.124;5.422;2023-03-14T01:31:19;5.88;;;1.65;;
71963;SDS011;59834;52.124;5.422;2023-03-14T01:33:46;4.90;;;0.35;;
71963;SDS011;59834;52.124;5.422;2023-03-14T01:36:13;6.80;;;1.13;;
71963;SDS011;59834;52.124;5.422;2023-03-14T01:38:39;8.98;;;0.40;;
71963;SDS011;59834;52.124;5.422;2023-03-14T01:41:07;6.13;;;0.40;;
71963;SDS011;59834;52.124;5.422;2023-03-14T01:43:37;10.30;;;1.13;;
71963;SDS011;59834;52.124;5.422;2023-03-14T01:48:33;6.87;;;0.33;;
71963;SDS011;59834;52.124;5.422;2023-03-14T01:51:20;3.47;;;0.38;;
71963;SDS011;59834;52.124;5.422;2023-03-14T01:53:51;7.38;;;0.40;;
71963;SDS011;59834;52.124;5.422;2023-03-14T01:56:24;3.63;;;0.68;;
71963;SDS011;59834;52.124;5.422;2023-03-14T01:58:50;10.43;;;0.68;;
71963;SDS011;59834;52.124;5.422;2023-03-14T02:01:19;9.60;;;0.50;;
71963;SDS011;59834;52.124;5.422;2023-03-14T02:03:50;7.22;;;0.40;;
71963;SDS011;59834;52.124;5.422;2023-03-14T02:06:22;4.97;;;0.68;;
71963;SDS011;59834;52.124;5.422;2023-03-14T02:08:52;12.45;;;0.68;;
71963;SDS011;59834;52.124;5.422;2023-03-14T02:11:19;5.00;;;0.68;;
71963;SDS011;59834;52.124;5.422;2023-03-14T02:13:47;9.07;;;0.70;;
71963;SDS011;59834;52.124;5.422;2023-03-14T02:16:14;3.08;;;0.35;;
71963;SDS011;59834;52.124;5.422;2023-03-14T02:18:41;11.75;;;0.82;;
71963;SDS011;59834;52.124;5.422;2023-03-14T02:21:16;3.42;;;0.63;;
71963;SDS011;59834;52.124;5.422;2023-03-14T02:26:31;4.73;;;0.40;;
71963;SDS011;59834;52.124;5.422;2023-03-14T02:29:04;4.18;;;0.30;;
71963;SDS011;59834;52.124;5.422;2023-03-14T02:31:31;7.72;;;0.65;;
71963;SDS011;59834;52.124;5.422;2023-03-14T02:33:59;6.68;;;0.45;;
71963;SDS011;59834;52.124;5.422;2023-03-14T02:36:27;7.93;;;0.38;;
71963;SDS011;59834;52.124;5.422;2023-03-14T02:39:11;5.33;;;0.57;;
71963;SDS011;59834;52.124;5.422;2023-03-14T02:41:42;5.30;;;0.47;;
71963;SDS011;59834;52.124;5.422;2023-03-14T02:44:11;4.43;;;0.88;;
71963;SDS011;59834;52.124;5.422;2023-03-14T02:46:38;8.15;;;0.40;;
71963;SDS011;59834;52.124;5.422;2023-03-14T02:49:05;7.57;;;0.50;;
71963;SDS011;59834;52.124;5.422;2023-03-14T02:51:36;3.73;;;0.60;;
71963;SDS011;59834;52.124;5.422;2023-03-14T02:54:03;4.80;;;0.50;;
71963;SDS011;59834;52.124;5.422;2023-03-14T02:56:30;2.38;;;0.30;;
71963;SDS011;59834;52.124;5.422;2023-03-14T02:58:56;3.33;;;0.30;;
71963;SDS011;59834;52.124;5.422;2023-03-14T03:01:24;4.45;;;0.82;;
71963;SDS011;59834;52.124;5.422;2023-03-14T03:03:51;18.87;;;0.87;;
71963;SDS011;59834;52.124;5.422;2023-03-14T03:06:17;7.75;;;0.77;;
71963;SDS011;59834;52.124;5.422;2023-03-14T03:08:44;7.88;;;1.27;;
71963;SDS011;59834;52.124;5.422;2023-03-14T03:11:10;9.35;;;0.50;;
71963;SDS011;59834;52.124;5.422;2023-03-14T03:13:37;4.47;;;0.63;;
71963;SDS011;59834;52.124;5.422;2023-03-14T03:16:04;8.80;;;0.80;;
71963;SDS011;59834;52.124;5.422;2023-03-14T03:18:30;2.17;;;0.22;;
71963;SDS011;59834;52.124;5.422;2023-03-14T03:21:02;8.60;;;0.88;;
71963;SDS011;59834;52.124;5.422;2023-03-14T03:23:30;8.98;;;1.48;;
71963;SDS011;59834;52.124;5.422;2023-03-14T03:25:56;7.53;;;0.75;;
71963;SDS011;59834;52.124;5.422;2023-03-14T03:28:23;8.20;;;0.70;;
71963;SDS011;59834;52.124;5.422;2023-03-14T03:30:49;2.30;;;0.32;;
71963;SDS011;59834;52.124;5.422;2023-03-14T03:33:16;3.80;;;0.40;;
71963;SDS011;59834;52.124;5.422;2023-03-14T03:35:46;8.43;;;0.60;;
71963;SDS011;59834;52.124;5.422;2023-03-14T03:38:15;7.75;;;1.23;;
71963;SDS011;59834;52.124;5.422;2023-03-14T03:40:42;5.27;;;0.83;;
71963;SDS011;59834;52.124;5.422;2023-03-14T03:43:09;11.30;;;0.77;;
71963;SDS011;59834;52.124;5.422;2023-03-14T03:45:35;14.45;;;1.02;;
71963;SDS011;59834;52.124;5.422;2023-03-14T03:48:02;4.57;;;0.50;;
71963;SDS011;59834;52.124;5.422;2023-03-14T03:50:29;6.30;;;0.82;;
71963;SDS011;59834;52.124;5.422;2023-03-14T03:52:55;5.87;;;1.40;;
71963;SDS011;59834;52.124;5.422;2023-03-14T03:55:22;10.13;;;0.30;;
71963;SDS011;59834;52.124;5.422;2023-03-14T03:57:48;5.88;;;0.40;;
71963;SDS011;59834;52.124;5.422;2023-03-14T04:00:15;2.60;;;0.73;;
71963;SDS011;59834;52.124;5.422;2023-03-14T04:02:41;6.70;;;0.50;;
71963;SDS011;59834;52.124;5.422;2023-03-14T04:05:09;5.43;;;0.53;;
71963;SDS011;59834;52.124;5.422;2023-03-14T04:07:35;8.57;;;0.63;;
71963;SDS011;59834;52.124;5.422;2023-03-14T04:10:01;8.63;;;1.10;;
71963;SDS011;59834;52.124;5.422;2023-03-14T04:12:28;8.00;;;0.40;;
71963;SDS011;59834;52.124;5.422;2023-03-14T04:14:54;8.00;;;0.60;;
71963;SDS011;59834;52.124;5.422;2023-03-14T04:17:21;3.50;;;0.50;;
71963;SDS011;59834;52.124;5.422;2023-03-14T04:19:48;3.22;;;0.30;;
71963;SDS011;59834;52.124;5.422;2023-03-14T04:22:17;8.68;;;1.15;;
71963;SDS011;59834;52.124;5.422;2023-03-14T04:24:43;10.73;;;0.35;;
71963;SDS011;59834;52.124;5.422;2023-03-14T04:27:10;8.30;;;0.50;;
71963;SDS011;59834;52.124;5.422;2023-03-14T04:29:36;4.93;;;1.57;;
71963;SDS011;59834;52.124;5.422;2023-03-14T04:32:03;9.70;;;0.55;;
71963;SDS011;59834;52.124;5.422;2023-03-14T04:34:30;9.77;;;0.60;;
71963;SDS011;59834;52.124;5.422;2023-03-14T04:36:56;5.03;;;0.68;;
71963;SDS011;59834;52.124;5.422;2023-03-14T04:39:23;5.28;;;0.68;;
71963;SDS011;59834;52.124;5.422;2023-03-14T04:41:49;4.10;;;0.30;;
71963;SDS011;59834;52.124;5.422;2023-03-14T04:44:16;6.20;;;0.55;;
71963;SDS011;59834;52.124;5.422;2023-03-14T04:46:43;5.63;;;0.35;;
71963;SDS011;59834;52.124;5.422;2023-03-14T04:49:10;7.05;;;0.38;;
71963;SDS011;59834;52.124;5.422;2023-03-14T04:51:36;4.45;;;0.63;;
71963;SDS011;59834;52.124;5.422;2023-03-14T04:54:03;3.93;;;0.40;;
71963;SDS011;59834;52.124;5.422;2023-03-14T04:56:29;6.28;;;0.40;;
71963;SDS011;59834;52.124;5.422;2023-03-14T04:58:56;8.35;;;0.75;;
71963;SDS011;59834;52.124;5.422;2023-03-14T05:01:22;2.92;;;0.40;;
71963;SDS011;59834;52.124;5.422;2023-03-14T05:03:49;4.75;;;0.50;;
71963;SDS011;59834;52.124;5.422;2023-03-14T05:06:16;7.80;;;0.87;;
71963;SDS011;59834;52.124;5.422;2023-03-14T05:08:42;6.25;;;0.65;;
71963;SDS011;59834;52.124;5.422;2023-03-14T05:11:09;8.68;;;0.82;;
71963;SDS011;59834;52.124;5.422;2023-03-14T05:13:36;7.90;;;0.80;;
71963;SDS011;59834;52.124;5.422;2023-03-14T05:16:06;8.65;;;1.13;;
71963;SDS011;59834;52.124;5.422;2023-03-14T05:18:34;9.97;;;0.57;;
71963;SDS011;59834;52.124;5.422;2023-03-14T05:21:01;5.95;;;0.82;;
71963;SDS011;59834;52.124;5.422;2023-03-14T05:23:28;5.75;;;0.55;;
71963;SDS011;59834;52.124;5.422;2023-03-14T05:25:55;4.70;;;0.65;;
71963;SDS011;59834;52.124;5.422;2023-03-14T05:28:22;4.68;;;0.50;;
71963;SDS011;59834;52.124;5.422;2023-03-14T05:30:48;5.37;;;0.67;;
71963;SDS011;59834;52.124;5.422;2023-03-14T05:33:15;7.93;;;0.77;;
71963;SDS011;59834;52.124;5.422;2023-03-14T05:35:42;9.02;;;0.50;;
71963;SDS011;59834;52.124;5.422;2023-03-14T05:38:09;3.45;;;0.40;;
71963;SDS011;59834;52.124;5.422;2023-03-14T05:40:35;4.55;;;0.50;;
71963;SDS011;59834;52.124;5.422;2023-03-14T05:43:02;6.53;;;0.80;;
71963;SDS011;59834;52.124;5.422;2023-03-14T05:45:28;12.95;;;0.85;;
71963;SDS011;59834;52.124;5.422;2023-03-14T05:47:55;6.95;;;0.90;;
71963;SDS011;59834;52.124;5.422;2023-03-14T05:50:21;2.80;;;0.63;;
71963;SDS011;59834;52.124;5.422;2023-03-14T05:52:48;4.43;;;0.70;;
71963;SDS011;59834;52.124;5.422;2023-03-14T05:55:14;5.90;;;0.87;;
71963;SDS011;59834;52.124;5.422;2023-03-14T05:57:41;4.55;;;1.02;;
71963;SDS011;59834;52.124;5.422;2023-03-14T06:00:07;5.53;;;0.82;;
71963;SDS011;59834;52.124;5.422;2023-03-14T06:02:35;5.22;;;1.10;;
71963;SDS011;59834;52.124;5.422;2023-03-14T06:05:01;15.38;;;1.95;;
71963;SDS011;59834;52.124;5.422;2023-03-14T06:07:28;4.80;;;1.10;;
71963;SDS011;59834;52.124;5.422;2023-03-14T06:09:54;6.85;;;1.13;;
71963;SDS011;59834;52.124;5.422;2023-03-14T06:12:20;4.95;;;1.20;;
71963;SDS011;59834;52.124;5.422;2023-03-14T06:14:47;4.93;;;1.27;;
71963;SDS011;59834;52.124;5.422;2023-03-14T06:17:13;5.85;;;1.48;;
71963;SDS011;59834;52.124;5.422;2023-03-14T06:19:40;5.90;;;1.17;;
71963;SDS011;59834;52.124;5.422;2023-03-14T06:22:06;4.60;;;1.83;;
71963;SDS011;59834;52.124;5.422;2023-03-14T06:24:33;11.35;;;2.10;;
71963;SDS011;59834;52.124;5.422;2023-03-14T06:26:59;8.23;;;1.60;;
71963;SDS011;59834;52.124;5.422;2023-03-14T06:29:26;4.80;;;1.63;;
71963;SDS011;59834;52.124;5.422;2023-03-14T06:31:52;5.33;;;2.00;;
71963;SDS011;59834;52.124;5.422;2023-03-14T06:34:19;10.35;;;2.42;;
71963;SDS011;59834;52.124;5.422;2023-03-14T06:36:45;4.82;;;2.03;;
71963;SDS011;59834;52.124;5.422;2023-03-14T06:39:12;5.25;;;1.65;;
71963;SDS011;59834;52.124;5.422;2023-03-14T06:41:38;3.25;;;1.15;;
71963;SDS011;59834;52.124;5.422;2023-03-14T06:44:05;5.87;;;1.73;;
71963;SDS011;59834;52.124;5.422;2023-03-14T06:46:31;2.78;;;0.95;;
71963;SDS011;59834;52.124;5.422;2023-03-14T06:48:58;3.45;;;0.82;;
71963;SDS011;59834;52.124;5.422;2023-03-14T06:51:24;2.88;;;0.38;;
71963;SDS011;59834;52.124;5.422;2023-03-14T06:53:51;1.42;;;0.10;;
71963;SDS011;59834;52.124;5.422;2023-03-14T06:56:17;1.30;;;0.20;;
71963;SDS011;59834;52.124;5.422;2023-03-14T06:58:44;2.78;;;0.17;;
71963;SDS011;59834;52.124;5.422;2023-03-14T07:01:17;0.70;;;0.10;;
71963;SDS011;59834;52.124;5.422;2023-03-14T07:03:48;0.40;;;0.00;;
71963;SDS011;59834;52.124;5.422;2023-03-14T07:06:15;1.23;;;0.00;;
71963;SDS011;59834;52.124;5.422;2023-03-14T07:08:42;2.73;;;0.10;;
71963;SDS011;59834;52.124;5.422;2023-03-14T07:11:08;1.08;;;0.08;;
71963;SDS011;59834;52.124;5.422;2023-03-14T07:13:40;1.33;;;0.05;;
71963;SDS011;59834;52.124;5.422;2023-03-14T07:16:06;0.88;;;0.00;;
71963;SDS011;59834;52.124;5.422;2023-03-14T07:18:34;0.63;;;0.10;;
71963;SDS011;59834;52.124;5.422;2023-03-14T07:21:01;0.60;;;0.00;;
71963;SDS011;59834;52.124;5.422;2023-03-14T07:23:27;0.50;;;0.00;;
71963;SDS011;59834;52.124;5.422;2023-03-14T07:25:54;1.00;;;0.03;;
71963;SDS011;59834;52.124;5.422;2023-03-14T07:28:20;0.40;;;0.00;;
71963;SDS011;59834;52.124;5.422;2023-03-14T07:30:47;0.82;;;0.10;;
71963;SDS011;59834;52.124;5.422;2023-03-14T07:33:14;1.63;;;0.10;;
71963;SDS011;59834;52.124;5.422;2023-03-14T07:35:41;1.38;;;0.10;;
71963;SDS011;59834;52.124;5.422;2023-03-14T07:38:08;0.52;;;0.10;;
71963;SDS011;59834;52.124;5.422;2023-03-14T07:40:35;0.90;;;0.20;;
71963;SDS011;59834;52.124;5.422;2023-03-14T07:43:01;1.08;;;0.10;;
71963;SDS011;59834;52.124;5.422;2023-03-14T07:45:28;0.80;;;0.10;;
71963;SDS011;59834;52.124;5.422;2023-03-14T07:47:54;0.52;;;0.03;;
71963;SDS011;59834;52.124;5.422;2023-03-14T07:50:26;1.08;;;0.10;;
71963;SDS011;59834;52.124;5.422;2023-03-14T07:52:54;3.53;;;0.20;;
71963;SDS011;59834;52.124;5.422;2023-03-14T07:55:21;2.75;;;0.00;;
71963;SDS011;59834;52.124;5.422;2023-03-14T07:57:47;1.53;;;0.10;;
71963;SDS011;59834;52.124;5.422;2023-03-14T08:00:14;3.65;;;0.05;;
71963;SDS011;59834;52.124;5.422;2023-03-14T08:02:41;0.50;;;0.05;;
71963;SDS011;59834;52.124;5.422;2023-03-14T08:05:08;0.93;;;0.10;;
71963;SDS011;59834;52.124;5.422;2023-03-14T08:07:35;1.10;;;0.00;;
71963;SDS011;59834;52.124;5.422;2023-03-14T08:10:02;4.43;;;0.10;;
71963;SDS011;59834;52.124;5.422;2023-03-14T08:12:30;2.35;;;1.00;;
71963;SDS011;59834;52.124;5.422;2023-03-14T08:14:57;2.80;;;0.10;;
71963;SDS011;59834;52.124;5.422;2023-03-14T08:17:23;4.25;;;0.10;;
71963;SDS011;59834;52.124;5.422;2023-03-14T08:19:52;3.08;;;0.10;;
71963;SDS011;59834;52.124;5.422;2023-03-14T08:22:18;4.70;;;0.03;;
71963;SDS011;59834;52.124;5.422;2023-03-14T08:24:45;2.33;;;0.10;;
71963;SDS011;59834;52.124;5.422;2023-03-14T08:27:12;4.88;;;0.13;;
71963;SDS011;59834;52.124;5.422;2023-03-14T08:29:43;0.40;;;0.00;;
71963;SDS011;59834;52.124;5.422;2023-03-14T08:32:10;1.65;;;0.00;;
71963;SDS011;59834;52.124;5.422;2023-03-14T08:34:36;2.93;;;0.10;;
71963;SDS011;59834;52.124;5.422;2023-03-14T08:37:03;1.50;;;0.10;;
71963;SDS011;59834;52.124;5.422;2023-03-14T08:39:48;1.33;;;0.10;;
71963;SDS011;59834;52.124;5.422;2023-03-14T08:42:15;2.30;;;0.00;;
71963;SDS011;59834;52.124;5.422;2023-03-14T08:44:41;0.95;;;0.00;;
71963;SDS011;59834;52.124;5.422;2023-03-14T08:47:08;2.67;;;0.20;;
71963;SDS011;59834;52.124;5.422;2023-03-14T08:49:35;3.45;;;0.30;;
71963;SDS011;59834;52.124;5.422;2023-03-14T08:52:02;1.13;;;0.00;;
71963;SDS011;59834;52.124;5.422;2023-03-14T08:54:30;3.97;;;0.43;;
71963;SDS011;59834;52.124;5.422;2023-03-14T08:56:57;0.63;;;0.10;;
71963;SDS011;59834;52.124;5.422;2023-03-14T08:59:24;4.60;;;0.13;;
71963;SDS011;59834;52.124;5.422;2023-03-14T09:01:50;3.50;;;0.20;;
71963;SDS011;59834;52.124;5.422;2023-03-14T09:04:17;4.03;;;0.55;;
71963;SDS011;59834;52.124;5.422;2023-03-14T09:06:43;3.10;;;0.10;;
71963;SDS011;59834;52.124;5.422;2023-03-14T09:09:09;3.38;;;0.17;;
71963;SDS011;59834;52.124;5.422;2023-03-14T09:11:36;8.33;;;0.73;;
71963;SDS011;59834;52.124;5.422;2023-03-14T09:14:02;4.60;;;0.10;;
71963;SDS011;59834;52.124;5.422;2023-03-14T09:16:29;6.85;;;0.20;;
71963;SDS011;59834;52.124;5.422;2023-03-14T09:18:55;3.40;;;0.20;;
71963;SDS011;59834;52.124;5.422;2023-03-14T09:21:26;0.93;;;0.08;;
71963;SDS011;59834;52.124;5.422;2023-03-14T09:23:53;0.93;;;0.50;;
71963;SDS011;59834;52.124;5.422;2023-03-14T09:26:19;11.00;;;0.30;;
71963;SDS011;59834;52.124;5.422;2023-03-14T09:28:46;4.97;;;0.50;;
71963;SDS011;59834;52.124;5.422;2023-03-14T09:31:12;9.45;;;0.98;;
71963;SDS011;59834;52.124;5.422;2023-03-14T09:33:40;8.45;;;0.55;;
71963;SDS011;59834;52.124;5.422;2023-03-14T09:36:06;5.87;;;0.57;;
71963;SDS011;59834;52.124;5.422;2023-03-14T09:38:34;5.40;;;0.17;;
71963;SDS011;59834;52.124;5.422;2023-03-14T09:41:01;7.35;;;0.20;;
71963;SDS011;59834;52.124;5.422;2023-03-14T09:43:38;7.28;;;1.00;;
71963;SDS011;59834;52.124;5.422;2023-03-14T09:46:08;5.22;;;0.25;;
71963;SDS011;59834;52.124;5.422;2023-03-14T09:48:36;7.00;;;0.93;;
71963;SDS011;59834;52.124;5.422;2023-03-14T09:51:05;12.75;;;0.70;;
71963;SDS011;59834;52.124;5.422;2023-03-14T09:53:45;9.45;;;0.60;;
71963;SDS011;59834;52.124;5.422;2023-03-14T09:56:15;7.28;;;0.38;;
71963;SDS011;59834;52.124;5.422;2023-03-14T09:58:45;11.50;;;0.80;;
71963;SDS011;59834;52.124;5.422;2023-03-14T10:01:18;5.57;;;0.30;;
71963;SDS011;59834;52.124;5.422;2023-03-14T10:03:50;11.70;;;0.40;;
71963;SDS011;59834;52.124;5.422;2023-03-14T10:06:21;14.80;;;0.65;;
71963;SDS011;59834;52.124;5.422;2023-03-14T10:08:49;10.45;;;0.47;;
71963;SDS011;59834;52.124;5.422;2023-03-14T10:11:16;9.25;;;0.73;;
71963;SDS011;59834;52.124;5.422;2023-03-14T10:13:53;4.77;;;0.30;;
71963;SDS011;59834;52.124;5.422;2023-03-14T10:16:34;13.13;;;0.65;;
71963;SDS011;59834;52.124;5.422;2023-03-14T10:19:03;11.20;;;0.50;;
71963;SDS011;59834;52.124;5.422;2023-03-14T10:21:35;2.88;;;0.30;;
71963;SDS011;59834;52.124;5.422;2023-03-14T10:24:26;8.75;;;0.30;;
71963;SDS011;59834;52.124;5.422;2023-03-14T10:26:55;7.80;;;0.30;;
71963;SDS011;59834;52.124;5.422;2023-03-14T10:29:28;16.58;;;1.00;;
71963;SDS011;59834;52.124;5.422;2023-03-14T10:32:01;8.05;;;0.60;;
71963;SDS011;59834;52.124;5.422;2023-03-14T10:34:34;10.35;;;1.50;;
71963;SDS011;59834;52.124;5.422;2023-03-14T10:37:06;11.32;;;0.52;;
71963;SDS011;59834;52.124;5.422;2023-03-14T10:39:46;8.00;;;0.93;;
71963;SDS011;59834;52.124;5.422;2023-03-14T10:42:26;10.18;;;0.43;;
71963;SDS011;59834;52.124;5.422;2023-03-14T10:45:02;9.32;;;0.60;;
71963;SDS011;59834;52.124;5.422;2023-03-14T10:47:31;9.55;;;0.57;;
71963;SDS011;59834;52.124;5.422;2023-03-14T10:50:18;11.65;;;0.82;;
71963;SDS011;59834;52.124;5.422;2023-03-14T10:52:57;13.67;;;1.43;;
71963;SDS011;59834;52.124;5.422;2023-03-14T10:55:41;14.43;;;0.98;;
71963;SDS011;59834;52.124;5.422;2023-03-14T11:00:54;15.98;;;0.75;;
71963;SDS011;59834;52.124;5.422;2023-03-14T11:03:29;22.02;;;1.15;;
71963;SDS011;59834;52.124;5.422;2023-03-14T11:06:14;8.67;;;0.53;;
71963;SDS011;59834;52.124;5.422;2023-03-14T11:09:00;14.02;;;1.05;;
71963;SDS011;59834;52.124;5.422;2023-03-14T11:11:33;7.55;;;0.80;;
71963;SDS011;59834;52.124;5.422;2023-03-14T11:16:57;16.95;;;0.65;;
71963;SDS011;59834;52.124;5.422;2023-03-14T11:19:40;12.40;;;0.97;;
71963;SDS011;59834;52.124;5.422;2023-03-14T11:22:34;11.98;;;0.98;;
71963;SDS011;59834;52.124;5.422;2023-03-14T11:25:12;11.93;;;0.90;;
71963;SDS011;59834;52.124;5.422;2023-03-14T11:27:42;10.50;;;0.50;;
71963;SDS011;59834;52.124;5.422;2023-03-14T11:30:19;10.25;;;0.63;;
71963;SDS011;59834;52.124;5.422;2023-03-14T11:33:00;9.23;;;0.80;;
71963;SDS011;59834;52.124;5.422;2023-03-14T11:35:33;7.18;;;1.08;;
71963;SDS011;59834;52.124;5.422;2023-03-14T11:38:12;11.63;;;0.32;;
71963;SDS011;59834;52.124;5.422;2023-03-14T11:40:46;6.95;;;0.22;;
71963;SDS011;59834;52.124;5.422;2023-03-14T11:43:20;7.50;;;0.47;;
71963;SDS011;59834;52.124;5.422;2023-03-14T11:45:54;14.63;;;0.50;;
71963;SDS011;59834;52.124;5.422;2023-03-14T11:50:57;6.25;;;0.45;;
71963;SDS011;59834;52.124;5.422;2023-03-14T11:54:04;7.40;;;0.43;;
71963;SDS011;59834;52.124;5.422;2023-03-14T11:56:34;12.38;;;1.20;;
71963;SDS011;59834;52.124;5.422;2023-03-14T11:59:16;4.93;;;0.30;;
71963;SDS011;59834;52.124;5.422;2023-03-14T12:08:03;9.77;;;0.63;;
71963;SDS011;59834;52.124;5.422;2023-03-14T12:10:49;8.18;;;0.22;;
71963;SDS011;59834;52.124;5.422;2023-03-14T12:13:20;7.00;;;0.83;;
71963;SDS011;59834;52.124;5.422;2023-03-14T12:15:57;4.00;;;0.32;;
71963;SDS011;59834;52.124;5.422;2023-03-14T12:18:26;5.15;;;0.25;;
71963;SDS011;59834;52.124;5.422;2023-03-14T12:21:13;8.85;;;0.50;;
71963;SDS011;59834;52.124;5.422;2023-03-14T12:34:42;8.32;;;0.47;;
71963;SDS011;59834;52.124;5.422;2023-03-14T12:39:19;3.90;;;0.27;;
71963;SDS011;59834;52.124;5.422;2023-03-14T12:46:57;8.50;;;0.20;;
71963;SDS011;59834;52.124;5.422;2023-03-14T12:49:31;9.55;;;0.25;;
71963;SDS011;59834;52.124;5.422;2023-03-14T12:52:02;1.53;;;0.43;;
71963;SDS011;59834;52.124;5.422;2023-03-14T13:02:19;4.47;;;0.50;;
71963;SDS011;59834;52.124;5.422;2023-03-14T13:10:21;5.07;;;0.20;;
71963;SDS011;59834;52.124;5.422;2023-03-14T13:13:14;4.15;;;0.82;;
71963;SDS011;59834;52.124;5.422;2023-03-14T13:15:46;7.90;;;0.50;;
71963;SDS011;59834;52.124;5.422;2023-03-14T13:20:51;4.97;;;0.17;;
71963;SDS011;59834;52.124;5.422;2023-03-14T13:23:21;3.58;;;0.20;;
71963;SDS011;59834;52.124;5.422;2023-03-14T13:25:55;2.80;;;0.30;;
71963;SDS011;59834;52.124;5.422;2023-03-14T13:28:22;6.97;;;0.30;;
71963;SDS011;59834;52.124;5.422;2023-03-14T13:30:50;4.23;;;0.10;;
71963;SDS011;59834;52.124;5.422;2023-03-14T13:33:22;3.70;;;0.30;;
71963;SDS011;59834;52.124;5.422;2023-03-14T13:38:23;5.60;;;0.55;;
71963;SDS011;59834;52.124;5.422;2023-03-14T13:40:51;6.82;;;0.35;;
71963;SDS011;59834;52.124;5.422;2023-03-14T13:43:27;5.20;;;0.10;;
71963;SDS011;59834;52.124;5.422;2023-03-14T13:46:07;4.53;;;0.40;;
71963;SDS011;59834;52.124;5.422;2023-03-14T13:48:44;2.55;;;0.20;;
71963;SDS011;59834;52.124;5.422;2023-03-14T13:51:13;4.18;;;0.40;;
71963;SDS011;59834;52.124;5.422;2023-03-14T13:53:43;5.50;;;0.28;;
71963;SDS011;59834;52.124;5.422;2023-03-14T13:56:11;13.40;;;0.52;;
71963;SDS011;59834;52.124;5.422;2023-03-14T13:58:39;7.40;;;0.30;;
71963;SDS011;59834;52.124;5.422;2023-03-14T14:01:14;2.85;;;0.20;;
71963;SDS011;59834;52.124;5.422;2023-03-14T14:03:44;1.65;;;0.20;;
71963;SDS011;59834;52.124;5.422;2023-03-14T14:06:21;2.33;;;0.20;;
71963;SDS011;59834;52.124;5.422;2023-03-14T14:08:57;5.30;;;0.30;;
71963;SDS011;59834;52.124;5.422;2023-03-14T14:11:32;4.75;;;0.77;;
71963;SDS011;59834;52.124;5.422;2023-03-14T14:14:20;5.93;;;0.43;;
71963;SDS011;59834;52.124;5.422;2023-03-14T14:17:08;6.35;;;0.15;;
71963;SDS011;59834;52.124;5.422;2023-03-14T14:19:37;6.97;;;0.63;;
71963;SDS011;59834;52.124;5.422;2023-03-14T14:22:05;6.73;;;0.57;;
71963;SDS011;59834;52.124;5.422;2023-03-14T14:24:33;4.18;;;0.60;;
71963;SDS011;59834;52.124;5.422;2023-03-14T14:27:12;8.57;;;0.60;;
71963;SDS011;59834;52.124;5.422;2023-03-14T14:29:41;4.30;;;0.20;;
71963;SDS011;59834;52.124;5.422;2023-03-14T14:34:41;4.67;;;0.20;;
71963;SDS011;59834;52.124;5.422;2023-03-14T14:37:19;7.10;;;0.40;;
71963;SDS011;59834;52.124;5.422;2023-03-14T14:39:57;9.20;;;0.22;;
71963;SDS011;59834;52.124;5.422;2023-03-14T14:42:29;4.57;;;0.57;;
71963;SDS011;59834;52.124;5.422;2023-03-14T14:44:57;5.22;;;0.30;;
71963;SDS011;59834;52.124;5.422;2023-03-14T14:47:26;2.90;;;0.40;;
71963;SDS011;59834;52.124;5.422;2023-03-14T14:49:55;3.20;;;0.20;;
71963;SDS011;59834;52.124;5.422;2023-03-14T14:52:41;2.63;;;0.43;;
71963;SDS011;59834;52.124;5.422;2023-03-14T14:55:16;2.17;;;0.22;;
71963;SDS011;59834;52.124;5.422;2023-03-14T14:57:48;11.35;;;0.30;;
71963;SDS011;59834;52.124;5.422;2023-03-14T15:00:26;5.40;;;0.70;;
71963;SDS011;59834;52.124;5.422;2023-03-14T15:02:54;7.15;;;0.30;;
71963;SDS011;59834;52.124;5.422;2023-03-14T15:05:26;1.67;;;0.30;;
71963;SDS011;59834;52.124;5.422;2023-03-14T15:07:56;3.13;;;0.30;;
71963;SDS011;59834;52.124;5.422;2023-03-14T15:10:24;8.48;;;0.10;;
71963;SDS011;59834;52.124;5.422;2023-03-14T15:12:51;3.87;;;0.30;;
71963;SDS011;59834;52.124;5.422;2023-03-14T15:15:18;2.25;;;0.13;;
71963;SDS011;59834;52.124;5.422;2023-03-14T15:17:45;3.00;;;0.30;;
71963;SDS011;59834;52.124;5.422;2023-03-14T15:20:12;5.47;;;0.20;;
71963;SDS011;59834;52.124;5.422;2023-03-14T15:22:40;5.90;;;0.75;;
71963;SDS011;59834;52.124;5.422;2023-03-14T15:25:07;4.50;;;0.30;;
71963;SDS011;59834;52.124;5.422;2023-03-14T15:27:47;4.07;;;0.40;;
71963;SDS011;59834;52.124;5.422;2023-03-14T15:30:15;2.10;;;0.10;;
71963;SDS011;59834;52.124;5.422;2023-03-14T15:32:47;5.65;;;0.35;;
71963;SDS011;59834;52.124;5.422;2023-03-14T15:35:14;1.92;;;0.43;;
71963;SDS011;59834;52.124;5.422;2023-03-14T15:37:43;3.87;;;0.10;;
71963;SDS011;59834;52.124;5.422;2023-03-14T15:40:10;6.55;;;0.50;;
71963;SDS011;59834;52.124;5.422;2023-03-14T15:42:41;4.25;;;0.10;;
71963;SDS011;59834;52.124;5.422;2023-03-14T15:45:08;3.67;;;0.30;;
71963;SDS011;59834;52.124;5.422;2023-03-14T15:47:35;2.75;;;0.10;;
71963;SDS011;59834;52.124;5.422;2023-03-14T15:50:02;3.10;;;0.20;;
71963;SDS011;59834;52.124;5.422;2023-03-14T15:52:30;6.55;;;0.55;;
71963;SDS011;59834;52.124;5.422;2023-03-14T15:54:56;2.75;;;0.10;;
71963;SDS011;59834;52.124;5.422;2023-03-14T15:57:23;2.55;;;0.10;;